createdAt,value
2022-08-16T00:02:52.454Z,10.33
2022-08-16T00:05:48.215Z,10.77
2022-08-16T00:08:37.695Z,11.33
2022-08-16T00:11:24.811Z,11.00
2022-08-16T00:14:17.030Z,11.40
2022-08-16T00:17:18.960Z,11.50
2022-08-16T00:20:12.358Z,10.83
2022-08-16T00:22:59.627Z,11.83
2022-08-16T00:26:33.856Z,11.23
2022-08-16T00:28:54.807Z,11.57
2022-08-16T00:31:47.154Z,11.60
2022-08-16T00:34:53.281Z,12.27
2022-08-16T00:37:56.291Z,12.20
2022-08-16T00:40:50.915Z,12.07
2022-08-16T00:43:43.298Z,11.87
2022-08-16T00:46:35.523Z,12.20
2022-08-16T00:49:23.691Z,12.13
2022-08-16T00:52:29.171Z,11.17
2022-08-16T00:55:17.621Z,11.77
2022-08-16T00:58:13.198Z,12.00
2022-08-16T01:01:08.124Z,11.10
2022-08-16T01:03:56.211Z,11.10
2022-08-16T01:06:49.376Z,12.00
2022-08-16T01:09:49.379Z,12.20
2022-08-16T01:12:36.673Z,10.47
2022-08-16T01:15:27.955Z,12.47
2022-08-16T01:18:39.155Z,11.53
2022-08-16T01:21:39.781Z,12.50
2022-08-16T01:24:52.759Z,11.60
2022-08-16T01:27:45.230Z,11.50
2022-08-16T01:30:36.853Z,11.03
2022-08-16T01:33:33.359Z,12.53
2022-08-16T01:36:23.096Z,13.20
2022-08-16T01:39:16.122Z,11.37
2022-08-16T01:42:12.026Z,12.03
2022-08-16T01:45:00.014Z,13.57
2022-08-16T01:47:51.010Z,11.97
2022-08-16T01:51:09.240Z,12.17
2022-08-16T01:53:55.463Z,13.03
2022-08-16T01:56:48.139Z,11.77
2022-08-16T01:59:39.143Z,13.03
2022-08-16T02:02:29.099Z,13.00
2022-08-16T02:05:15.942Z,14.27
2022-08-16T02:08:02.797Z,12.90
2022-08-16T02:10:52.400Z,13.03
2022-08-16T02:13:41.856Z,12.40
2022-08-16T02:16:33.907Z,12.80
2022-08-16T02:19:21.777Z,13.10
2022-08-16T02:22:35.042Z,13.37
2022-08-16T02:25:18.378Z,12.83
2022-08-16T02:28:05.804Z,12.97
2022-08-16T02:30:59.589Z,13.50
2022-08-16T02:33:50.732Z,13.67
2022-08-16T02:36:50.621Z,14.90
2022-08-16T02:39:41.406Z,15.60
2022-08-16T02:42:28.725Z,16.43
2022-08-16T02:45:16.068Z,15.10
2022-08-16T02:48:29.413Z,15.83
2022-08-16T02:51:12.520Z,13.80
2022-08-16T02:54:02.155Z,13.07
2022-08-16T02:56:49.142Z,17.43
2022-08-16T02:59:36.663Z,17.73
2022-08-16T03:02:31.709Z,16.77
2022-08-16T03:05:24.073Z,15.27
2022-08-16T03:08:50.213Z,16.07
2022-08-16T03:11:21.662Z,16.93
2022-08-16T03:14:09.646Z,17.77
2022-08-16T03:17:00.880Z,17.33
2022-08-16T03:20:00.241Z,18.13
2022-08-16T03:22:56.496Z,16.37
2022-08-16T03:25:45.503Z,17.77
2022-08-16T03:28:35.705Z,16.50
2022-08-16T03:31:22.754Z,15.77
2022-08-16T03:34:10.148Z,18.10
2022-08-16T03:37:02.098Z,16.17
2022-08-16T03:39:48.955Z,14.70
2022-08-16T03:43:19.273Z,16.83
2022-08-16T03:45:53.418Z,16.30
2022-08-16T03:48:43.139Z,13.87
2022-08-16T03:51:37.645Z,15.13
2022-08-16T03:54:28.610Z,14.33
2022-08-16T03:57:16.527Z,13.70
2022-08-16T04:00:20.683Z,13.47
2022-08-16T04:03:21.492Z,13.50
2022-08-16T04:06:09.344Z,13.43
2022-08-16T04:08:56.909Z,13.70
2022-08-16T04:11:44.023Z,14.43
2022-08-16T04:14:32.676Z,14.07
2022-08-16T04:17:24.277Z,13.83
2022-08-16T04:20:29.416Z,14.33
2022-08-16T04:23:23.661Z,14.23
2022-08-16T04:26:16.689Z,13.27
2022-08-16T04:29:16.961Z,13.93
2022-08-16T04:32:10.870Z,13.70
2022-08-16T04:35:07.761Z,14.20
2022-08-16T04:37:57.571Z,12.37
2022-08-16T04:40:50.175Z,12.47
2022-08-16T04:43:39.210Z,14.57
2022-08-16T04:47:00.525Z,14.07
2022-08-16T04:49:46.097Z,12.50
2022-08-16T04:52:36.847Z,13.43
2022-08-16T04:55:31.652Z,13.03
2022-08-16T04:58:38.408Z,12.63
2022-08-16T05:01:55.900Z,12.10
2022-08-16T05:04:34.798Z,13.20
2022-08-16T05:07:21.356Z,13.87
2022-08-16T05:10:23.043Z,13.77
2022-08-16T05:13:15.558Z,13.13
2022-08-16T05:16:03.163Z,11.87
2022-08-16T05:18:53.896Z,13.37
2022-08-16T05:21:44.341Z,14.03
2022-08-16T05:24:33.283Z,12.37
2022-08-16T05:27:24.129Z,13.27
2022-08-16T05:30:34.455Z,11.40
2022-08-16T05:33:22.568Z,15.20
2022-08-16T05:36:14.597Z,14.37
2022-08-16T05:39:10.132Z,13.10
2022-08-16T05:41:58.584Z,13.50
2022-08-16T05:44:46.719Z,13.43
2022-08-16T05:47:43.437Z,15.07
2022-08-16T05:50:34.375Z,14.37
2022-08-16T05:53:24.215Z,14.73
2022-08-16T05:56:34.114Z,14.93
2022-08-16T05:59:22.167Z,15.20
2022-08-16T06:02:10.549Z,14.23
2022-08-16T06:04:59.780Z,14.80
2022-08-16T06:07:59.049Z,15.23
2022-08-16T06:11:02.593Z,13.83
2022-08-16T06:13:57.339Z,14.47
2022-08-16T06:17:05.424Z,15.07
2022-08-16T06:19:54.466Z,13.53
2022-08-16T06:22:47.795Z,14.63
2022-08-16T06:25:53.307Z,13.33
2022-08-16T06:28:43.106Z,13.33
2022-08-16T06:31:38.399Z,13.03
2022-08-16T06:34:56.833Z,13.27
2022-08-16T06:37:47.574Z,13.00
2022-08-16T06:40:38.428Z,13.63
2022-08-16T06:43:27.371Z,13.30
2022-08-16T06:46:31.782Z,14.03
2022-08-16T06:49:22.414Z,13.23
2022-08-16T06:52:55.459Z,14.87
2022-08-16T06:55:18.653Z,14.50
2022-08-16T06:58:22.638Z,14.87
2022-08-16T07:01:24.328Z,13.73
2022-08-16T07:04:32.860Z,14.87
2022-08-16T07:07:24.004Z,15.30
2022-08-16T07:10:25.623Z,15.50
2022-08-16T07:13:19.684Z,13.83
2022-08-16T07:16:21.285Z,14.67
2022-08-16T07:19:16.961Z,16.20
2022-08-16T07:22:07.089Z,15.43
2022-08-16T07:25:16.654Z,16.07
2022-08-16T07:28:05.510Z,15.00
2022-08-16T07:31:00.124Z,15.43
2022-08-16T07:33:55.017Z,14.87
2022-08-16T07:36:58.213Z,15.67
2022-08-16T07:39:54.643Z,15.43
2022-08-16T07:42:42.089Z,15.67
2022-08-16T07:45:30.721Z,16.23
2022-08-16T07:48:22.141Z,15.63
2022-08-16T07:51:13.649Z,16.30
2022-08-16T07:54:10.212Z,16.30
2022-08-16T07:57:02.105Z,14.27
2022-08-16T07:59:50.891Z,14.83
2022-08-16T08:02:41.103Z,15.00
2022-08-16T08:05:35.735Z,14.13
2022-08-16T08:08:50.145Z,14.40
2022-08-16T08:11:32.023Z,14.50
2022-08-16T08:14:30.091Z,14.77
2022-08-16T08:17:19.600Z,13.37
2022-08-16T08:20:11.340Z,14.50
2022-08-16T08:23:00.761Z,13.20
2022-08-16T08:25:55.316Z,13.30
2022-08-16T08:28:45.753Z,12.67
2022-08-16T08:31:32.628Z,13.07
2022-08-16T08:34:23.070Z,13.50
2022-08-16T08:37:11.217Z,13.17
2022-08-16T08:39:58.619Z,11.93
2022-08-16T08:42:48.054Z,11.33
2022-08-16T08:45:46.816Z,11.47
2022-08-16T08:48:36.764Z,11.47
2022-08-16T08:51:35.504Z,11.67
2022-08-16T08:54:25.352Z,9.33
2022-08-16T08:57:15.699Z,10.03
2022-08-16T09:00:26.910Z,9.97
2022-08-16T09:03:16.160Z,10.67
2022-08-16T09:06:06.964Z,10.70
2022-08-16T09:08:57.104Z,10.13
2022-08-16T09:11:52.358Z,10.27
2022-08-16T09:14:49.336Z,11.23
2022-08-16T09:17:49.069Z,11.27
2022-08-16T09:20:58.833Z,10.30
2022-08-16T09:23:45.856Z,10.47
2022-08-16T09:26:45.266Z,10.63
2022-08-16T09:29:45.296Z,11.60
2022-08-16T09:32:36.130Z,9.80
2022-08-16T09:35:23.806Z,10.20
2022-08-16T09:38:31.472Z,8.23
2022-08-16T09:41:19.329Z,8.57
2022-08-16T09:45:09.773Z,8.80
2022-08-16T09:47:16.448Z,8.30
2022-08-16T09:50:12.949Z,8.60
2022-08-16T09:53:15.240Z,7.60
2022-08-16T09:56:04.799Z,8.00
2022-08-16T09:59:03.540Z,8.40
2022-08-16T10:02:26.654Z,9.03
2022-08-16T10:05:19.834Z,7.80
2022-08-16T10:08:25.336Z,7.93
2022-08-16T10:11:30.386Z,7.97
2022-08-16T10:14:17.255Z,8.27
2022-08-16T10:17:07.161Z,9.10
2022-08-16T10:19:59.117Z,7.47
2022-08-16T10:22:46.249Z,8.50
2022-08-16T10:27:16.172Z,8.63
2022-08-16T10:28:42.047Z,8.67
2022-08-16T10:31:43.752Z,7.53
2022-08-16T10:34:32.830Z,7.83
2022-08-16T10:37:32.823Z,7.90
2022-08-16T10:40:29.396Z,9.30
2022-08-16T10:43:18.619Z,8.23
2022-08-16T10:46:39.141Z,7.83
2022-08-16T10:49:15.730Z,7.40
2022-08-16T10:52:18.452Z,7.60
2022-08-16T10:58:17.403Z,7.97
2022-08-16T11:22:59.081Z,6.80
2022-08-16T11:26:22.792Z,6.40
2022-08-16T11:29:13.879Z,6.33
2022-08-16T11:32:00.779Z,6.40
2022-08-16T11:35:09.924Z,6.43
2022-08-16T11:38:47.605Z,6.60
2022-08-16T11:41:05.331Z,6.67
2022-08-16T11:43:54.025Z,7.40
2022-08-16T11:46:47.276Z,6.57
2022-08-16T11:49:37.269Z,6.23
2022-08-16T11:52:24.257Z,7.20
2022-08-16T11:55:14.815Z,6.00
2022-08-16T11:58:03.895Z,6.87
2022-08-16T12:00:53.106Z,6.07
2022-08-16T12:03:41.786Z,6.40
2022-08-16T12:06:30.587Z,5.33
2022-08-16T12:09:17.855Z,6.27
2022-08-16T12:12:07.823Z,5.97
2022-08-16T12:14:59.460Z,5.87
2022-08-16T12:17:47.624Z,6.07
2022-08-16T12:20:41.808Z,5.87
2022-08-16T12:23:31.658Z,6.30
2022-08-16T12:26:18.456Z,6.13
2022-08-16T12:29:05.729Z,5.63
2022-08-16T12:32:00.959Z,6.20
2022-08-16T12:34:58.712Z,6.00
2022-08-16T12:37:47.334Z,6.03
2022-08-16T12:40:37.824Z,6.60
2022-08-16T12:43:31.216Z,5.57
2022-08-16T12:46:18.291Z,5.43
2022-08-16T12:49:06.523Z,5.20
2022-08-16T12:51:58.975Z,5.57
2022-08-16T12:54:54.809Z,6.10
2022-08-16T12:57:42.101Z,5.57
2022-08-16T13:00:32.341Z,5.70
2022-08-16T13:03:21.687Z,5.70
2022-08-16T13:06:12.366Z,5.50
2022-08-16T13:09:02.474Z,6.10
2022-08-16T13:12:00.433Z,6.43
2022-08-16T13:14:50.065Z,5.87
2022-08-16T13:17:37.799Z,5.80
2022-08-16T13:20:30.210Z,6.00
2022-08-16T13:23:19.367Z,5.97
2022-08-16T13:26:09.843Z,5.80
2022-08-16T13:28:56.809Z,5.73
2022-08-16T13:31:43.371Z,6.10
2022-08-16T13:34:30.118Z,5.70
2022-08-16T13:37:17.364Z,6.07
2022-08-16T13:40:08.072Z,6.07
2022-08-16T13:42:56.522Z,6.90
2022-08-16T13:45:44.694Z,6.50
2022-08-16T13:48:43.368Z,5.80
2022-08-16T13:51:32.353Z,5.77
2022-08-16T13:54:19.087Z,6.13
2022-08-16T13:57:07.495Z,6.23
2022-08-16T13:59:58.760Z,7.03
2022-08-16T14:02:47.187Z,6.80
2022-08-16T14:05:35.618Z,6.63
2022-08-16T14:08:26.671Z,6.40
2022-08-16T14:11:15.556Z,6.33
2022-08-16T14:14:05.292Z,6.30
2022-08-16T14:16:52.716Z,6.93
2022-08-16T14:19:44.760Z,6.93
2022-08-16T14:22:35.819Z,6.87
2022-08-16T14:25:29.501Z,7.57
2022-08-16T14:28:16.886Z,7.20
2022-08-16T14:31:05.196Z,7.03
2022-08-16T14:33:52.259Z,6.77
2022-08-16T14:36:40.822Z,7.00
2022-08-16T14:39:29.575Z,6.37
2022-08-16T14:42:19.095Z,6.90
2022-08-16T14:45:07.665Z,6.77
2022-08-16T14:47:56.058Z,6.53
2022-08-16T14:50:43.502Z,6.20
2022-08-16T14:53:32.631Z,6.33
2022-08-16T14:56:38.419Z,6.70
2022-08-16T14:59:27.286Z,7.50
2022-08-16T15:02:33.946Z,7.70
2022-08-16T15:05:24.453Z,6.53
2022-08-16T15:08:11.952Z,6.60
2022-08-16T15:11:02.081Z,7.10
2022-08-16T15:13:51.701Z,6.93
2022-08-16T15:16:39.693Z,6.23
2022-08-16T15:19:33.375Z,6.23
2022-08-16T15:22:29.899Z,6.20
2022-08-16T15:25:19.077Z,6.40
2022-08-16T15:28:10.772Z,6.70
2022-08-16T15:31:13.190Z,6.40
2022-08-16T15:34:01.121Z,6.07
2022-08-16T15:36:47.878Z,5.97
2022-08-16T15:39:39.620Z,6.07
2022-08-16T15:42:28.839Z,5.87
2022-08-16T15:45:38.073Z,5.67
2022-08-16T15:48:28.451Z,6.33
2022-08-16T15:51:15.943Z,6.20
2022-08-16T15:54:21.150Z,5.70
2022-08-16T15:57:12.296Z,5.53
2022-08-16T16:00:04.971Z,5.70
2022-08-16T16:03:03.490Z,5.80
2022-08-16T16:05:53.598Z,5.43
2022-08-16T16:08:42.572Z,5.20
2022-08-16T16:11:31.100Z,5.90
2022-08-16T16:14:20.372Z,5.63
2022-08-16T16:17:16.504Z,5.57
2022-08-16T16:20:05.171Z,5.40
2022-08-16T16:23:03.097Z,5.40
2022-08-16T16:25:50.260Z,5.30
2022-08-16T16:29:08.510Z,5.30
2022-08-16T16:31:59.009Z,5.63
2022-08-16T16:34:45.905Z,4.97
2022-08-16T16:37:32.675Z,4.37
2022-08-16T16:40:28.921Z,5.30
2022-08-16T16:43:19.294Z,4.67
2022-08-16T16:46:39.290Z,4.97
2022-08-16T16:49:21.931Z,4.70
2022-08-16T16:52:10.360Z,4.60
2022-08-16T16:55:00.039Z,5.13
2022-08-16T16:58:05.246Z,4.53
2022-08-16T17:01:04.742Z,4.60
2022-08-16T17:03:53.497Z,5.07
2022-08-16T17:06:43.226Z,4.90
2022-08-16T17:09:41.285Z,5.40
2022-08-16T17:12:47.127Z,4.57
2022-08-16T17:15:36.579Z,5.03
2022-08-16T17:19:14.590Z,5.43
2022-08-16T17:21:33.538Z,4.70
2022-08-16T17:24:39.862Z,4.80
2022-08-16T17:27:33.176Z,4.60
2022-08-16T17:30:45.495Z,4.70
2022-08-16T17:33:36.762Z,5.10
2022-08-16T17:36:36.631Z,5.17
2022-08-16T17:39:29.260Z,5.43
2022-08-16T17:42:18.090Z,4.93
2022-08-16T17:45:04.767Z,5.10
2022-08-16T17:47:51.950Z,4.90
2022-08-16T17:50:39.294Z,5.07
2022-08-16T17:53:26.553Z,5.17
2022-08-16T17:56:16.697Z,5.40
2022-08-16T17:59:03.418Z,4.00
2022-08-16T18:01:50.690Z,4.40
2022-08-16T18:04:49.920Z,5.20
2022-08-16T18:07:37.682Z,5.10
2022-08-16T18:10:33.275Z,4.73
2022-08-16T18:13:24.262Z,4.60
2022-08-16T18:16:11.030Z,4.50
2022-08-16T18:18:57.735Z,4.90
2022-08-16T18:22:02.365Z,4.80
2022-08-16T18:24:50.002Z,4.73
2022-08-16T18:27:36.996Z,5.47
2022-08-16T18:30:24.938Z,5.07
2022-08-16T18:33:11.958Z,4.40
2022-08-16T18:35:58.567Z,5.13
2022-08-16T18:38:45.286Z,4.97
2022-08-16T18:41:37.192Z,5.40
2022-08-16T18:44:29.271Z,5.10
2022-08-16T18:47:20.025Z,4.87
2022-08-16T18:50:07.700Z,5.23
2022-08-16T18:52:56.499Z,4.80
2022-08-16T18:55:45.518Z,4.87
2022-08-16T18:58:34.018Z,4.83
2022-08-16T19:01:21.604Z,4.57
2022-08-16T19:04:56.503Z,5.20
2022-08-16T19:07:16.196Z,4.67
2022-08-16T19:10:03.664Z,4.93
2022-08-16T19:12:50.872Z,5.60
2022-08-16T19:15:38.012Z,5.60
2022-08-16T19:18:25.684Z,5.60
2022-08-16T19:21:14.642Z,5.67
2022-08-16T19:24:02.395Z,5.87
2022-08-16T19:26:51.063Z,5.27
2022-08-16T19:29:37.623Z,6.03
2022-08-16T19:32:28.382Z,6.10
2022-08-16T19:35:16.322Z,6.00
2022-08-16T19:38:05.323Z,7.10
2022-08-16T19:40:52.127Z,6.53
2022-08-16T19:43:39.107Z,7.03
2022-08-16T19:46:25.943Z,6.23
2022-08-16T19:49:15.848Z,5.60
2022-08-16T19:52:11.521Z,7.00
2022-08-16T19:55:03.390Z,6.47
2022-08-16T19:57:50.287Z,6.87
2022-08-16T20:00:39.007Z,7.20
2022-08-16T20:03:27.093Z,7.10
2022-08-16T20:06:37.807Z,6.53
2022-08-16T20:09:25.850Z,7.30
2022-08-16T20:12:17.300Z,7.13
2022-08-16T20:15:06.293Z,6.87
2022-08-16T20:17:54.311Z,7.10
2022-08-16T20:20:42.912Z,7.87
2022-08-16T20:23:30.454Z,7.60
2022-08-16T20:26:19.091Z,7.47
2022-08-16T20:29:08.203Z,8.20
2022-08-16T20:31:55.501Z,7.50
2022-08-16T20:34:43.088Z,7.80
2022-08-16T20:37:32.870Z,8.63
2022-08-16T20:40:34.331Z,7.93
2022-08-16T20:43:23.139Z,7.67
2022-08-16T20:46:12.592Z,8.33
2022-08-16T20:49:01.304Z,8.57
2022-08-16T20:51:53.453Z,7.40
2022-08-16T20:54:44.334Z,8.50
2022-08-16T20:57:32.951Z,7.87
2022-08-16T21:00:20.433Z,8.37
2022-08-16T21:03:10.265Z,8.30
2022-08-16T21:05:59.179Z,8.33
2022-08-16T21:08:53.034Z,8.97
2022-08-16T21:11:40.870Z,8.47
2022-08-16T21:14:27.936Z,9.43
2022-08-16T21:17:17.443Z,8.20
2022-08-16T21:20:08.557Z,8.57
2022-08-16T21:22:57.203Z,8.53
2022-08-16T21:25:59.103Z,8.10
2022-08-16T21:28:46.328Z,8.17
2022-08-16T21:31:33.207Z,8.63
2022-08-16T21:34:20.022Z,9.20
2022-08-16T21:37:08.425Z,9.30
2022-08-16T21:39:55.266Z,9.60
2022-08-16T21:42:44.209Z,8.27
2022-08-16T21:45:31.146Z,8.93
2022-08-16T21:48:34.392Z,8.67
2022-08-16T21:51:22.604Z,8.93
2022-08-16T21:54:10.980Z,10.40
2022-08-16T21:56:57.510Z,9.53
2022-08-16T21:59:44.292Z,8.80
2022-08-16T22:02:35.633Z,9.40
2022-08-16T22:05:25.868Z,9.03
2022-08-16T22:08:16.835Z,10.37
2022-08-16T22:11:09.315Z,10.60
2022-08-16T22:13:58.528Z,9.73
2022-08-16T22:16:47.269Z,9.67
2022-08-16T22:19:34.180Z,10.90
2022-08-16T22:22:20.915Z,10.87
2022-08-16T22:25:08.238Z,11.93
2022-08-16T22:27:56.460Z,11.60
2022-08-16T22:30:43.716Z,10.83
2022-08-16T22:33:30.377Z,10.37
2022-08-16T22:36:17.259Z,11.37
2022-08-16T22:39:07.797Z,11.43
2022-08-16T22:41:54.546Z,12.80
2022-08-16T22:44:46.260Z,11.63
2022-08-16T22:47:33.595Z,12.23
2022-08-16T22:50:20.439Z,11.60
2022-08-16T22:53:07.423Z,12.33
2022-08-16T22:55:54.317Z,11.40
2022-08-16T22:58:43.957Z,11.53
2022-08-16T23:01:32.491Z,11.83
2022-08-16T23:04:19.357Z,10.87
2022-08-16T23:07:06.764Z,10.77
2022-08-16T23:09:53.669Z,10.87
2022-08-16T23:12:48.684Z,11.60
2022-08-16T23:15:41.865Z,11.60
2022-08-16T23:18:31.624Z,11.90
2022-08-16T23:21:22.826Z,11.70
2022-08-16T23:24:15.323Z,11.63
2022-08-16T23:27:03.335Z,10.50
2022-08-16T23:29:50.299Z,11.27
2022-08-16T23:32:44.911Z,11.10
2022-08-16T23:35:45.385Z,11.40
2022-08-16T23:38:37.486Z,11.93
2022-08-16T23:41:25.726Z,10.20
2022-08-16T23:44:42.307Z,11.37
2022-08-16T23:47:19.011Z,9.80
2022-08-16T23:50:07.517Z,9.50
2022-08-16T23:53:04.298Z,10.43
2022-08-16T23:55:52.970Z,10.67
2022-08-16T23:58:42.000Z,10.17
